Time;durP1;ratioP1;P1;durP2;ratioP2;P2;SDS_P1;SDS_P2;PMS_P1;PMS_P2;Temp;Humidity;BMP_temperature;BMP_pressure;BME280_temperature;BME280_humidity;BME280_pressure;Samples;Min_cycle;Max_cycle;Signal;HPM_P1;HPM_P2
2022/05/19 00:01:44;;;;;;;;;;;;;;;16.69;100.00;-25536.88;5051450;28;19970;-77
2022/05/19 00:04:11;;;;;;;;;;;;;;;16.74;100.00;-25538.19;5041225;28;19960;-78
2022/05/19 00:06:36;;;;;;;;;;;;;;;16.83;100.00;-25540.94;5031927;28;20404;-78
2022/05/19 00:09:01;;;;;;;;;;;;;;;16.76;100.00;-25538.91;5049974;28;20008;-78
2022/05/19 00:11:29;;;;;;;;;;;;;;;16.73;100.00;-25538.03;5052515;28;20318;-77
2022/05/19 00:13:55;;;;;;;;;;;;;;;16.75;100.00;-25538.63;5052735;28;19928;-76
2022/05/19 00:16:20;;;;;;;;;;;;;;;16.73;100.00;-25537.91;5051000;28;20395;-76
2022/05/19 00:18:46;;;;;;;;;;;;;;;16.77;100.00;-25539.06;5051035;28;19917;-77
2022/05/19 00:21:11;;;;;;;;;;;;;;;16.75;100.00;-25538.63;5052642;28;19917;-77
2022/05/19 00:23:41;;;;;;;;;;;;;;;16.80;100.00;-25540.06;5051383;28;19917;-75
2022/05/19 00:26:07;;;;;;;;;;;;;;;16.79;100.00;-25539.78;5052356;28;19917;-78
2022/05/19 00:28:32;;;;;;;;;;;;;;;16.82;100.00;-25540.50;5054762;28;19917;-76
2022/05/19 00:30:57;;;;;;;;;;;;;;;16.85;100.00;-25541.38;5054956;28;19917;-78
2022/05/19 00:33:23;;;;;;;;;;;;;;;16.81;100.00;-25540.22;5054572;28;19923;-79
2022/05/19 00:35:49;;;;;;;;;;;;;;;16.74;100.00;-25538.34;5054857;28;19939;-80
2022/05/19 00:38:14;;;;;;;;;;;;;;;16.76;100.00;-25538.78;5058931;28;19923;-78
2022/05/19 00:40:45;;;;;;;;;;;;;;;16.82;100.00;-25540.66;5058097;28;20440;-79
2022/05/19 00:43:11;;;;;;;;;;;;;;;16.75;100.00;-25538.63;5058603;28;20267;-79
2022/05/19 00:45:54;;;;;;;;;;;;;;;16.77;100.00;-25539.06;5058321;28;19970;-79
2022/05/19 00:48:22;;;;;;;;;;;;;;;16.74;100.00;-25538.34;5058341;28;20002;-78
2022/05/19 00:50:55;;;;;;;;;;;;;;;16.75;100.00;-25538.47;5058542;28;19917;-79
2022/05/19 00:53:28;;;;;;;;;;;;;;;16.68;100.00;-25536.59;5058266;28;19978;-79
2022/05/19 00:55:56;;;;;;;;;;;;;;;16.73;100.00;-25538.03;5058298;28;19917;-77
2022/05/19 00:58:48;;;;;;;;;;;;;;;16.76;100.00;-25538.78;5058618;28;20278;-77
2022/05/19 01:01:13;;;;;;;;;;;;;;;16.81;100.00;-25540.22;5053289;28;19916;-76
2022/05/19 01:03:47;;;;;;;;;;;;;;;16.80;100.00;-25539.94;5057646;28;19920;-78
2022/05/19 01:06:15;;;;;;;;;;;;;;;16.80;100.00;-25540.06;5058084;28;20288;-78
2022/05/19 01:09:01;;;;;;;;;;;;;;;16.77;100.00;-25539.22;5057817;28;19962;-77
2022/05/19 01:11:26;;;;;;;;;;;;;;;16.76;100.00;-25538.78;5058059;28;19916;-77
2022/05/19 01:13:53;;;;;;;;;;;;;;;16.73;100.00;-25538.03;5057075;28;20038;-79
2022/05/19 01:16:19;;;;;;;;;;;;;;;16.77;100.00;-25539.06;5057739;28;19921;-78
2022/05/19 01:18:44;;;;;;;;;;;;;;;16.78;100.00;-25539.34;5057758;28;19923;-79
2022/05/19 01:21:12;;;;;;;;;;;;;;;16.81;100.00;-25540.22;5058043;28;20429;-78
2022/05/19 01:23:57;;;;;;;;;;;;;;;16.79;100.00;-25539.63;5057354;28;19923;-77
2022/05/19 01:26:32;;;;;;;;;;;;;;;16.83;100.00;-25540.94;5075912;28;19920;-78
2022/05/19 01:28:58;;;;;;;;;;;;;;;16.88;100.00;-25542.13;5075651;28;20317;-78
2022/05/19 01:31:28;;;;;;;;;;;;;;;16.87;100.00;-25541.97;5058013;28;19926;-79
2022/05/19 01:33:55;;;;;;;;;;;;;;;16.85;100.00;-25541.38;5057507;28;19964;-76
2022/05/19 01:36:21;;;;;;;;;;;;;;;16.91;100.00;-25542.97;5057088;28;19916;-77
2022/05/19 01:38:49;;;;;;;;;;;;;;;16.87;100.00;-25541.97;5057268;28;19916;-78
2022/05/19 01:41:21;;;;;;;;;;;;;;;16.94;100.00;-25544.00;5057392;28;19920;-79
2022/05/19 01:44:09;;;;;;;;;;;;;;;16.97;100.00;-25544.72;5056628;28;19916;-79
2022/05/19 01:46:43;;;;;;;;;;;;;;;17.03;100.00;-25546.47;5074746;28;20373;-78
2022/05/19 01:49:22;;;;;;;;;;;;;;;17.12;100.00;-25548.94;5055992;28;19995;-79
2022/05/19 01:51:55;;;;;;;;;;;;;;;17.14;100.00;-25549.66;5056920;28;19916;-78
2022/05/19 01:54:28;;;;;;;;;;;;;;;17.21;100.00;-25551.69;5057498;28;19924;-78
2022/05/19 01:56:56;;;;;;;;;;;;;;;17.21;100.00;-25551.69;5056727;28;19979;-79
2022/05/19 01:59:25;;;;;;;;;;;;;;;17.23;100.00;-25552.25;5057329;28;19917;-78
2022/05/19 02:01:58;;;;;;;;;;;;;;;17.23;100.00;-25552.13;5056823;28;19970;-78
2022/05/19 02:04:33;;;;;;;;;;;;;;;17.34;100.00;-25555.16;5056858;28;20249;-77
2022/05/19 02:07:01;;;;;;;;;;;;;;;17.36;100.00;-25555.88;5056752;28;19917;-79
2022/05/19 02:09:44;;;;;;;;;;;;;;;17.40;100.00;-25557.06;5056264;28;19924;-77
2022/05/19 02:12:10;;;;;;;;;;;;;;;17.38;100.00;-25556.31;5054961;28;19916;-74
2022/05/19 02:14:38;;;;;;;;;;;;;;;17.19;100.00;-25550.97;5072599;28;20346;-75
2022/05/19 02:17:07;;;;;;;;;;;;;;;17.17;100.00;-25550.53;5055072;28;20307;-75
2022/05/19 02:19:35;;;;;;;;;;;;;;;17.11;100.00;-25548.78;5055057;28;20376;-76
2022/05/19 02:22:02;;;;;;;;;;;;;;;17.22;100.00;-25551.97;5055617;28;19923;-74
2022/05/19 02:24:33;;;;;;;;;;;;;;;17.29;100.00;-25553.88;5055439;28;19916;-75
2022/05/19 02:26:59;;;;;;;;;;;;;;;17.27;100.00;-25553.28;5073259;28;19928;-75
2022/05/19 02:29:26;;;;;;;;;;;;;;;17.26;100.00;-25553.00;5055890;28;19916;-75
2022/05/19 02:31:51;;;;;;;;;;;;;;;17.20;100.00;-25551.41;5054970;28;19912;-76
2022/05/19 02:34:18;;;;;;;;;;;;;;;17.18;100.00;-25550.81;5055655;28;19973;-78
2022/05/19 02:36:43;;;;;;;;;;;;;;;17.18;100.00;-25550.81;5055138;28;19917;-77
2022/05/19 02:39:09;;;;;;;;;;;;;;;17.23;100.00;-25552.25;5055260;28;19996;-76
2022/05/19 02:41:35;;;;;;;;;;;;;;;17.23;100.00;-25552.13;5055485;28;19923;-77
2022/05/19 02:44:02;;;;;;;;;;;;;;;17.27;100.00;-25553.28;5055564;28;20054;-76
2022/05/19 02:46:28;;;;;;;;;;;;;;;17.33;100.00;-25555.00;5038073;28;20014;-75
2022/05/19 02:48:54;;;;;;;;;;;;;;;17.32;100.00;-25554.59;5072257;28;20007;-75
2022/05/19 02:51:19;;;;;;;;;;;;;;;17.36;100.00;-25555.75;5073004;28;19920;-76
2022/05/19 02:53:49;;;;;;;;;;;;;;;17.30;100.00;-25554.00;5054354;28;19922;-76
2022/05/19 02:56:14;;;;;;;;;;;;;;;17.28;100.00;-25553.56;5071930;28;19979;-75
2022/05/19 02:58:39;;;;;;;;;;;;;;;17.26;100.00;-25552.84;5054219;28;20359;-74
2022/05/19 03:01:07;;;;;;;;;;;;;;;17.25;100.00;-25552.56;5054408;28;19920;-76
2022/05/19 03:03:32;;;;;;;;;;;;;;;17.30;100.00;-25554.16;5054972;28;19959;-75
2022/05/19 03:05:57;;;;;;;;;;;;;;;17.32;100.00;-25554.72;5054853;28;20280;-75
2022/05/19 03:08:22;;;;;;;;;;;;;;;17.34;100.00;-25555.16;5054472;28;20053;-76
2022/05/19 03:10:48;;;;;;;;;;;;;;;17.28;100.00;-25553.44;5054941;28;19916;-78
2022/05/19 03:13:19;;;;;;;;;;;;;;;17.31;100.00;-25554.44;5054658;28;19986;-80
2022/05/19 03:15:44;;;;;;;;;;;;;;;17.26;100.00;-25553.00;5054860;28;20364;-77
2022/05/19 03:18:09;;;;;;;;;;;;;;;17.17;100.00;-25550.53;5054807;28;20025;-77
2022/05/19 03:20:35;;;;;;;;;;;;;;;17.13;100.00;-25549.38;5053870;28;20273;-76
2022/05/19 03:23:01;;;;;;;;;;;;;;;17.17;100.00;-25550.53;5054315;28;19977;-75
2022/05/19 03:25:26;;;;;;;;;;;;;;;17.17;100.00;-25550.53;5054379;28;19924;-77
2022/05/19 03:27:51;;;;;;;;;;;;;;;17.15;100.00;-25549.94;5036920;28;19925;-75
2022/05/19 03:30:19;;;;;;;;;;;;;;;17.11;100.00;-25548.78;5054188;28;22448;-75
2022/05/19 03:32:45;;;;;;;;;;;;;;;17.10;100.00;-25548.34;5053878;28;19921;-78
2022/05/19 03:35:11;;;;;;;;;;;;;;;17.11;100.00;-25548.78;5053890;28;19923;-75
2022/05/19 03:37:36;;;;;;;;;;;;;;;17.15;100.00;-25549.94;5071893;28;19999;-77
2022/05/19 03:40:02;;;;;;;;;;;;;;;17.15;100.00;-25549.78;5054632;28;19966;-75
2022/05/19 03:42:28;;;;;;;;;;;;;;;17.18;100.00;-25550.81;5054061;28;19916;-76
2022/05/19 03:44:54;;;;;;;;;;;;;;;17.18;100.00;-25550.66;5054343;28;19917;-76
2022/05/19 03:47:19;;;;;;;;;;;;;;;17.21;100.00;-25551.53;5054590;28;19921;-77
2022/05/19 03:49:45;;;;;;;;;;;;;;;17.21;100.00;-25551.69;5053440;28;19920;-74
2022/05/19 03:52:10;;;;;;;;;;;;;;;17.19;100.00;-25551.09;5037142;28;19920;-75
2022/05/19 03:54:38;;;;;;;;;;;;;;;17.20;100.00;-25551.25;5053991;28;19917;-79
2022/05/19 03:57:06;;;;;;;;;;;;;;;17.24;100.00;-25552.41;5054145;28;19916;-77
2022/05/19 03:59:31;;;;;;;;;;;;;;;17.29;100.00;-25553.88;5072357;28;19923;-79
2022/05/19 04:01:57;;;;;;;;;;;;;;;17.31;100.00;-25554.44;5072329;28;19916;-76
2022/05/19 04:04:22;;;;;;;;;;;;;;;17.22;100.00;-25551.97;5053466;28;19912;-74
2022/05/19 04:06:47;;;;;;;;;;;;;;;17.21;100.00;-25551.53;5053564;28;20021;-75
2022/05/19 04:09:12;;;;;;;;;;;;;;;17.20;100.00;-25551.41;5054573;28;19917;-75
2022/05/19 04:11:38;;;;;;;;;;;;;;;17.20;100.00;-25551.25;5073050;28;19958;-76
2022/05/19 04:14:05;;;;;;;;;;;;;;;17.09;100.00;-25548.22;5058136;28;19940;-77
2022/05/19 04:16:30;;;;;;;;;;;;;;;17.01;90.46;-25545.88;5058744;28;19936;-77
2022/05/19 04:18:55;;;;;;;;;;;;;;;17.05;85.68;-25547.03;5058952;28;19966;-77
2022/05/19 04:21:21;;;;;;;;;;;;;;;16.98;79.27;-25545.16;5058484;28;20353;-77
2022/05/19 04:23:46;;;;;;;;;;;;;;;17.02;75.07;-25546.19;5058600;28;19964;-77
2022/05/19 04:26:11;;;;;;;;;;;;;;;17.04;74.59;-25546.75;5058676;28;19959;-78
2022/05/19 04:28:37;;;;;;;;;;;;;;;17.08;74.38;-25547.78;5058257;28;19927;-77
2022/05/19 04:31:02;;;;;;;;;;;;;;;17.14;74.35;-25549.66;5059041;28;19962;-78
2022/05/19 04:33:28;;;;;;;;;;;;;;;17.08;74.77;-25547.78;5041527;28;20407;-77
2022/05/19 04:35:54;;;;;;;;;;;;;;;17.09;74.83;-25548.22;5057810;28;19916;-77
2022/05/19 04:38:19;;;;;;;;;;;;;;;17.16;74.50;-25550.09;5056746;28;19974;-77
2022/05/19 04:40:48;;;;;;;;;;;;;;;17.15;74.44;-25549.78;5039641;28;20018;-77
2022/05/19 04:43:21;;;;;;;;;;;;;;;17.08;74.94;-25547.78;5057233;28;19916;-77
2022/05/19 04:45:50;;;;;;;;;;;;;;;17.08;75.17;-25547.91;5058051;28;19973;-76
2022/05/19 04:48:16;;;;;;;;;;;;;;;17.09;75.82;-25548.22;5058234;28;19924;-76
2022/05/19 04:50:41;;;;;;;;;;;;;;;17.19;76.63;-25550.97;5057796;28;20276;-77
2022/05/19 04:53:11;;;;;;;;;;;;;;;17.15;76.86;-25549.94;5058273;28;19913;-76
2022/05/19 04:55:37;;;;;;;;;;;;;;;17.14;76.51;-25549.50;5075670;28;20288;-77
2022/05/19 04:58:03;;;;;;;;;;;;;;;17.12;75.46;-25549.06;5057798;28;19923;-77
2022/05/19 05:00:29;;;;;;;;;;;;;;;17.10;74.61;-25548.34;5037723;28;19916;-77
2022/05/19 05:02:55;;;;;;;;;;;;;;;17.17;74.43;-25550.53;5064925;28;19925;-77
2022/05/19 05:05:23;;;;;;;;;;;;;;;17.17;75.09;-25550.53;5057885;28;19916;-77
2022/05/19 05:07:48;;;;;;;;;;;;;;;17.22;75.31;-25551.84;5057334;28;19923;-77
2022/05/19 05:10:13;;;;;;;;;;;;;;;17.27;75.66;-25553.28;5037899;28;20380;-77
2022/05/19 05:12:39;;;;;;;;;;;;;;;17.31;75.65;-25554.28;5056945;28;19921;-77
2022/05/19 05:15:04;;;;;;;;;;;;;;;17.36;75.83;-25555.75;5075513;28;19920;-76
2022/05/19 05:17:32;;;;;;;;;;;;;;;17.40;77.13;-25557.06;5075698;28;19974;-78
2022/05/19 05:19:58;;;;;;;;;;;;;;;17.41;77.86;-25557.19;5057582;28;20276;-78
2022/05/19 05:22:23;;;;;;;;;;;;;;;17.41;78.48;-25557.19;5057291;28;19961;-77
2022/05/19 05:24:54;;;;;;;;;;;;;;;17.38;80.09;-25556.31;5074754;28;19928;-78
2022/05/19 05:27:20;;;;;;;;;;;;;;;17.51;80.79;-25560.09;5075387;28;19927;-78
2022/05/19 05:29:45;;;;;;;;;;;;;;;17.54;80.88;-25560.97;5075648;28;19920;-78
2022/05/19 05:32:10;;;;;;;;;;;;;;;17.47;83.47;-25558.78;5057261;28;19924;-78
2022/05/19 05:34:41;;;;;;;;;;;;;;;17.63;87.51;-25563.28;5057152;28;20284;-78
2022/05/19 05:37:07;;;;;;;;;;;;;;;17.59;92.63;-25562.41;5057890;28;19916;-78
2022/05/19 05:39:33;;;;;;;;;;;;;;;17.73;95.25;-25566.19;5057464;28;19916;-78
2022/05/19 05:41:58;;;;;;;;;;;;;;;17.75;99.15;-25566.75;5057107;28;19920;-78
2022/05/19 05:44:25;;;;;;;;;;;;;;;17.83;100.00;-25568.94;5075306;28;20262;-78
2022/05/19 05:46:51;;;;;;;;;;;;;;;17.94;100.00;-25572.25;5057462;28;20019;-78
2022/05/19 05:49:18;;;;;;;;;;;;;;;17.91;100.00;-25571.41;5074968;28;19924;-78
2022/05/19 05:51:43;;;;;;;;;;;;;;;17.98;100.00;-25573.13;5057754;28;19924;-78
2022/05/19 05:54:10;;;;;;;;;;;;;;;18.08;100.00;-25576.03;5057381;28;20288;-78
2022/05/19 05:56:35;;;;;;;;;;;;;;;18.02;100.00;-25574.28;5056833;28;19920;-78
2022/05/19 05:59:00;;;;;;;;;;;;;;;18.00;100.00;-25573.84;5057053;28;19978;-78
2022/05/19 06:01:26;;;;;;;;;;;;;;;18.21;100.00;-25579.63;5074587;28;19917;-78
2022/05/19 06:03:51;;;;;;;;;;;;;;;18.08;100.00;-25576.03;5056549;28;19920;-79
2022/05/19 06:06:17;;;;;;;;;;;;;;;18.08;100.00;-25576.03;5064363;28;19923;-79
2022/05/19 06:08:43;;;;;;;;;;;;;;;18.24;100.00;-25580.66;5056447;28;20584;-78
2022/05/19 06:11:08;;;;;;;;;;;;;;;18.28;100.00;-25581.81;5040190;28;19920;-79
2022/05/19 06:13:35;;;;;;;;;;;;;;;18.21;100.00;-25579.78;5056224;28;19923;-80
2022/05/19 06:16:00;;;;;;;;;;;;;;;18.37;100.00;-25584.13;5053227;28;20708;-79
2022/05/19 06:18:25;;;;;;;;;;;;;;;18.47;100.00;-25587.03;5075945;28;19916;-80
2022/05/19 06:20:51;;;;;;;;;;;;;;;18.53;100.00;-25588.63;5076044;28;19951;-80
2022/05/19 06:23:18;;;;;;;;;;;;;;;18.38;100.00;-25584.56;5092068;28;19916;-81
2022/05/19 06:25:44;;;;;;;;;;;;;;;18.23;100.00;-25580.22;5076135;28;19999;-80
2022/05/19 06:28:10;;;;;;;;;;;;;;;18.24;100.00;-25580.66;5065878;28;19924;-80
2022/05/19 06:30:35;;;;;;;;;;;;;;;18.41;100.00;-25585.28;5055079;28;20024;-78
2022/05/19 06:33:00;;;;;;;;;;;;;;;18.41;100.00;-25585.28;5055327;28;19944;-79
2022/05/19 06:35:27;;;;;;;;;;;;;;;18.31;100.00;-25582.53;5054900;28;19940;-78
2022/05/19 06:37:53;;;;;;;;;;;;;;;18.30;100.00;-25582.41;5054546;28;20015;-78
2022/05/19 06:40:19;;;;;;;;;;;;;;;18.37;100.00;-25584.13;5055543;28;20019;-78
2022/05/19 06:42:45;;;;;;;;;;;;;;;18.44;100.00;-25586.31;5054520;28;19956;-78
2022/05/19 06:45:12;;;;;;;;;;;;;;;18.55;100.00;-25589.19;5072231;28;19991;-78
2022/05/19 06:47:37;;;;;;;;;;;;;;;18.57;100.00;-25589.91;5072771;28;19916;-78
2022/05/19 06:50:04;;;;;;;;;;;;;;;18.65;100.00;-25592.09;5055590;28;19916;-78
2022/05/19 06:52:31;;;;;;;;;;;;;;;18.75;100.00;-25594.81;5071708;28;19977;-77
2022/05/19 06:54:59;;;;;;;;;;;;;;;18.90;100.00;-25599.16;5054945;28;19924;-79
2022/05/19 06:57:25;;;;;;;;;;;;;;;19.25;100.00;-25609.00;5055012;28;19939;-79
2022/05/19 06:59:51;;;;;;;;;;;;;;;19.30;100.00;-25610.44;5054233;28;19916;-78
2022/05/19 07:02:18;;;;;;;;;;;;;;;19.20;100.00;-25607.56;5072697;28;20026;-79
2022/05/19 07:04:44;;;;;;;;;;;;;;;19.36;100.00;-25612.03;5054364;28;19916;-78
2022/05/19 07:07:09;;;;;;;;;;;;;;;19.72;100.00;-25622.28;5053202;28;20609;-79
2022/05/19 07:09:35;;;;;;;;;;;;;;;19.92;100.00;-25627.75;5054685;28;19916;-78
2022/05/19 07:12:00;;;;;;;;;;;;;;;19.79;100.00;-25624.00;5055330;28;19917;-79
2022/05/19 07:14:26;;;;;;;;;;;;;;;20.11;100.00;-25633.09;5054227;28;19916;-78
2022/05/19 07:16:52;;;;;;;;;;;;;;;20.33;100.00;-25639.28;5070017;28;19982;-79
2022/05/19 07:22:04;;;;;;;;;;;;;;;20.22;100.00;-25636.28;5071020;28;19971;-79
2022/05/19 07:24:29;;;;;;;;;;;;;;;20.70;100.00;-25649.53;5035350;28;19971;-79
2022/05/19 07:26:55;;;;;;;;;;;;;;;20.37;100.00;-25640.44;5071793;28;20008;-79
2022/05/19 07:29:23;;;;;;;;;;;;;;;20.33;100.00;-25639.28;5053818;28;19981;-78
2022/05/19 07:31:49;;;;;;;;;;;;;;;20.33;100.00;-25639.28;5053795;28;19959;-79
2022/05/19 07:34:15;;;;;;;;;;;;;;;20.37;100.00;-25640.31;5071004;28;19916;-79
2022/05/19 07:36:41;;;;;;;;;;;;;;;20.48;100.00;-25643.31;5070653;28;19922;-79
2022/05/19 07:39:08;;;;;;;;;;;;;;;20.19;100.00;-25635.41;5054598;28;19960;-79
2022/05/19 07:41:34;;;;;;;;;;;;;;;20.20;100.00;-25635.56;5071460;28;19927;-78
2022/05/19 07:44:00;;;;;;;;;;;;;;;20.33;100.00;-25639.28;5054420;28;19920;-79
2022/05/19 07:46:25;;;;;;;;;;;;;;;20.35;100.00;-25639.88;5053591;28;20356;-79
2022/05/19 07:48:54;;;;;;;;;;;;;;;20.25;100.00;-25637.13;5053514;28;19920;-80
2022/05/19 07:51:22;;;;;;;;;;;;;;;20.47;100.00;-25643.19;5053778;28;19925;-80
2022/05/19 07:53:47;;;;;;;;;;;;;;;20.61;100.00;-25647.22;5072021;28;19917;-79
2022/05/19 07:56:13;;;;;;;;;;;;;;;20.73;100.00;-25650.41;5069800;28;19923;-78
2022/05/19 07:58:38;;;;;;;;;;;;;;;20.73;100.00;-25650.41;5053497;28;19927;-81
2022/05/19 08:01:03;;;;;;;;;;;;;;;20.69;100.00;-25649.38;5070776;28;20238;-80
2022/05/19 08:03:29;;;;;;;;;;;;;;;20.98;100.00;-25657.44;5068503;28;20033;-79
2022/05/19 08:05:56;;;;;;;;;;;;;;;21.47;100.00;-25671.13;5063444;28;19963;-80
2022/05/19 08:08:21;;;;;;;;;;;;;;;21.74;100.00;-25678.75;5036115;28;19917;-79
2022/05/19 08:10:47;;;;;;;;;;;;;;;21.63;100.00;-25675.72;5032229;28;19923;-79
2022/05/19 08:15:56;;;;;;;;;;;;;;;21.87;100.00;-25682.47;5064664;28;19928;-80
2022/05/19 08:18:22;;;;;;;;;;;;;;;22.13;100.00;-25689.66;5051097;28;19916;-80
2022/05/19 08:20:49;;;;;;;;;;;;;;;22.83;100.00;-25709.19;5033657;28;19925;-80
2022/05/19 08:23:18;;;;;;;;;;;;;;;22.87;100.00;-23045.41;5033260;28;19924;-81
2022/05/19 08:25:43;;;;;;;;;;;;;;;22.63;100.00;-17377.09;5034176;28;20458;-78
2022/05/19 08:28:09;;;;;;;;;;;;;;;22.59;100.00;-13708.28;5033852;28;19928;-79
2022/05/19 08:30:34;;;;;;;;;;;;;;;22.92;100.00;-11373.94;5050802;28;19917;-78
2022/05/19 08:33:03;;;;;;;;;;;;;;;22.48;100.00;-8366.22;5051879;28;20368;-79
2022/05/19 08:35:28;;;;;;;;;;;;;;;22.53;100.00;-8032.19;5040223;28;19924;-80
2022/05/19 08:37:53;;;;;;;;;;;;;;;22.96;100.00;-4018.25;5083765;28;20383;-80
2022/05/19 08:40:20;;;;;;;;;;;;;;;23.61;100.00;-662.63;5092898;28;19928;-80
2022/05/19 08:42:47;;;;;;;;;;;;;;;24.14;100.00;18519.38;5076794;28;19927;-80
2022/05/19 08:45:26;;;;;;;;;;;;;;;24.42;100.00;36793.31;5052687;28;19955;-81
2022/05/19 08:47:59;;;;;;;;;;;;;;;24.27;100.00;60918.66;5048959;28;19996;-79
2022/05/19 08:50:36;;;;;;;;;;;;;;;24.01;100.00;106825.78;5053411;28;20450;-80
2022/05/19 08:53:06;;;;;;;;;;;;;;;24.70;100.00;117664.63;5069899;28;19971;-79
2022/05/19 08:55:32;;;;;;;;;;;;;;;25.14;100.00;149035.28;5053686;28;19928;-81
2022/05/19 08:58:01;;;;;;;;;;;;;;;24.91;100.00;148977.44;5073167;28;19917;-81
2022/05/19 09:00:51;;;;;;;;;;;;;;;23.89;100.00;148723.06;5057407;28;19916;-80
2022/05/19 09:03:33;;;;;;;;;;;;;;;24.18;100.00;148796.25;5075115;28;19986;-79
2022/05/19 09:06:11;;;;;;;;;;;;;;;23.90;100.00;148725.63;5056479;28;19921;-78
2022/05/19 09:08:39;;;;;;;;;;;;;;;23.81;100.00;137231.16;5057009;28;19927;-79
2022/05/19 09:11:16;;;;;;;;;;;;;;;23.64;100.00;139971.03;5075173;28;19923;-78
2022/05/19 09:13:53;;;;;;;;;;;;;;;23.32;100.00;148579.22;5055956;28;19963;-80
2022/05/19 09:16:24;;;;;;;;;;;;;;;23.11;100.00;140193.38;5057616;28;19916;-79
2022/05/19 09:19:03;;;;;;;;;;;;;;;22.94;100.00;141887.38;5069247;28;19920;-78
2022/05/19 09:21:28;;;;;;;;;;;;;;;22.83;100.00;148457.25;5074596;28;19916;-78
2022/05/19 09:23:55;;;;;;;;;;;;;;;23.23;100.00;148558.69;5074309;28;19919;-79
2022/05/19 09:26:39;;;;;;;;;;;;;;;23.29;100.00;148572.81;5056591;28;19917;-78
2022/05/19 09:29:07;;;;;;;;;;;;;;;23.40;100.00;148599.75;5074960;28;19916;-79
2022/05/19 09:31:33;;;;;;;;;;;;;;;23.71;100.00;148676.78;5074032;28;19917;-77
2022/05/19 09:33:59;;;;;;;;;;;;;;;24.14;100.00;148785.97;5054559;28;20383;-77
2022/05/19 09:36:28;;;;;;;;;;;;;;;24.79;100.00;148946.59;5056226;28;20337;-77
2022/05/19 09:38:58;;;;;;;;;;;;;;;24.91;100.00;148978.72;5056108;28;20406;-77
2022/05/19 09:41:33;;;;;;;;;;;;;;;25.10;100.00;149024.97;5055249;28;19968;-77
2022/05/19 09:43:59;;;;;;;;;;;;;;;24.36;100.00;148841.22;5073504;28;19920;-78
2022/05/19 09:46:33;;;;;;;;;;;;;;;24.12;100.00;148780.84;5056431;28;19927;-76
2022/05/19 09:49:03;;;;;;;;;;;;;;;23.99;100.00;148748.75;5073571;28;19984;-77
2022/05/19 09:51:32;;;;;;;;;;;;;;;24.61;100.00;148879.84;5074087;28;19920;-78
2022/05/19 09:53:59;;;;;;;;;;;;;;;24.71;100.00;148928.59;5073867;28;19917;-78
2022/05/19 09:56:34;;;;;;;;;;;;;;;24.37;100.00;148843.75;5038842;28;19928;-78
2022/05/19 09:59:05;;;;;;;;;;;;;;;24.91;100.00;148978.72;5055386;28;19974;-77
2022/05/19 10:01:35;;;;;;;;;;;;;;;25.07;100.00;149018.53;5073411;28;20304;-79
2022/05/19 10:04:01;;;;;;;;;;;;;;;25.31;100.00;149077.75;5073752;28;20003;-77
2022/05/19 10:06:36;;;;;;;;;;;;;;;24.51;100.00;148877.19;5073940;28;19938;-78
2022/05/19 10:09:08;;;;;;;;;;;;;;;24.26;100.00;148815.53;5054464;28;19917;-79
2022/05/19 10:11:35;;;;;;;;;;;;;;;24.29;100.00;126584.84;5055585;28;19923;-79
2022/05/19 10:14:08;;;;;;;;;;;;;;;24.25;100.00;128309.22;5056059;28;19995;-79
2022/05/19 10:16:48;;;;;;;;;;;;;;;24.35;100.00;148838.63;5055490;28;19932;-81
2022/05/19 10:19:16;;;;;;;;;;;;;;;24.23;100.00;117916.13;5073146;28;19920;-81
2022/05/19 10:21:49;;;;;;;;;;;;;;;24.13;100.00;119625.75;5045252;28;20003;-79
2022/05/19 10:24:35;;;;;;;;;;;;;;;24.47;100.00;148868.22;5056688;28;19973;-80
2022/05/19 10:33:07;;;;;;;;;;;;;;;23.73;100.00;85808.78;5061668;28;19927;-79
2022/05/19 10:35:41;;;;;;;;;;;;;;;23.37;100.00;66614.22;5074566;28;19920;-80
2022/05/19 10:38:16;;;;;;;;;;;;;;;23.18;100.00;51621.03;5073793;28;19966;-80
2022/05/19 10:41:00;;;;;;;;;;;;;;;22.95;100.00;28582.03;5055736;28;19916;-80
2022/05/19 10:43:45;;;;;;;;;;;;;;;22.58;100.00;15428.38;5074078;28;20388;-80
2022/05/19 10:46:13;;;;;;;;;;;;;;;22.43;100.00;5688.44;5056834;28;19991;-81
2022/05/19 10:48:38;;;;;;;;;;;;;;;22.53;100.00;-9702.31;5055323;28;20012;-80
2022/05/19 10:51:11;;;;;;;;;;;;;;;22.59;100.00;-20708.44;5059738;28;19956;-79
2022/05/19 10:53:55;;;;;;;;;;;;;;;22.10;100.00;-25688.78;5055439;28;20288;-79
2022/05/19 10:56:43;;;;;;;;;;;;;;;21.92;100.00;-25683.63;5073115;28;19917;-78
2022/05/19 10:59:27;;;;;;;;;;;;;;;21.00;100.00;-25657.88;5054280;28;20009;-77
2022/05/19 11:02:11;;;;;;;;;;;;;;;20.13;100.00;-25633.53;5055009;28;19916;-77
2022/05/19 11:04:49;;;;;;;;;;;;;;;19.68;100.00;-25620.97;5054637;28;19917;-78
2022/05/19 11:07:26;;;;;;;;;;;;;;;19.42;100.00;-25613.75;5054648;28;19923;-79
2022/05/19 11:10:10;;;;;;;;;;;;;;;19.33;100.00;-25611.31;5055339;28;20007;-79
2022/05/19 11:12:49;;;;;;;;;;;;;;;19.06;100.00;-25603.66;5054903;28;19916;-81
2022/05/19 11:15:24;;;;;;;;;;;;;;;19.00;100.00;-25602.06;5054928;28;20353;-78
2022/05/19 11:17:49;;;;;;;;;;;;;;;18.93;100.00;-25600.03;5054666;28;20381;-78
2022/05/19 11:20:20;;;;;;;;;;;;;;;18.95;100.00;-25600.63;5071163;28;19924;-79
2022/05/19 11:22:48;;;;;;;;;;;;;;;18.86;100.00;-25598.00;5053750;28;20217;-77
2022/05/19 11:28:02;;;;;;;;;;;;;;;18.83;100.00;-25597.28;5072040;28;20000;-77
2022/05/19 11:30:39;;;;;;;;;;;;;;;18.76;100.00;-25595.13;5054962;28;19962;-79
2022/05/19 11:33:08;;;;;;;;;;;;;;;18.80;100.00;-25596.28;5049560;28;19917;-80
2022/05/19 11:35:37;;;;;;;;;;;;;;;18.70;100.00;-25593.38;5037001;28;20019;-78
2022/05/19 11:38:18;;;;;;;;;;;;;;;18.76;100.00;-25595.25;5054492;28;19917;-78
2022/05/19 11:40:56;;;;;;;;;;;;;;;18.59;100.00;-25590.50;5053846;28;19916;-78
2022/05/19 11:43:34;;;;;;;;;;;;;;;18.76;100.00;-25595.25;5054487;28;19916;-80
2022/05/19 11:46:15;;;;;;;;;;;;;;;18.62;100.00;-25591.22;5054914;28;19927;-79
2022/05/19 11:57:31;;;;;;;;;;;;;;;18.52;100.00;-25588.47;5041263;28;20360;-81
2022/05/19 11:59:58;;;;;;;;;;;;;;;18.46;100.00;-25586.72;5071681;28;19923;-78
2022/05/19 12:02:26;;;;;;;;;;;;;;;18.46;100.00;-25586.72;5052824;28;19917;-78
2022/05/19 12:04:58;;;;;;;;;;;;;;;18.58;100.00;-25590.06;5071535;28;19916;-78
2022/05/19 12:07:37;;;;;;;;;;;;;;;18.46;100.00;-25586.72;5054075;28;19931;-77
2022/05/19 12:10:03;;;;;;;;;;;;;;;18.45;100.00;-25586.44;5071769;28;19920;-77
2022/05/19 12:12:35;;;;;;;;;;;;;;;18.45;100.00;-25586.59;5072114;28;19939;-77
2022/05/19 12:15:20;;;;;;;;;;;;;;;18.45;100.00;-25586.59;5053191;28;20403;-77
2022/05/19 12:17:51;;;;;;;;;;;;;;;18.44;100.00;-25586.16;5053666;28;20053;-77
2022/05/19 12:20:35;;;;;;;;;;;;;;;18.35;100.00;-25583.69;5054108;28;20353;-77
2022/05/19 12:23:18;;;;;;;;;;;;;;;18.32;100.00;-25582.69;5052969;28;19924;-76
2022/05/19 12:25:48;;;;;;;;;;;;;;;18.36;100.00;-25583.84;5070970;28;19944;-79
2022/05/19 12:28:14;;;;;;;;;;;;;;;18.21;100.00;-25579.63;5052825;28;20304;-76
2022/05/19 12:33:32;;;;;;;;;;;;;;;18.17;100.00;-25578.63;5074257;28;20379;-77
2022/05/19 12:36:04;;;;;;;;;;;;;;;18.12;100.00;-25577.31;5074507;28;20459;-76
2022/05/19 12:38:38;;;;;;;;;;;;;;;18.23;100.00;-25580.38;5057087;28;20014;-78
2022/05/19 12:41:08;;;;;;;;;;;;;;;18.33;100.00;-25582.97;5057118;28;20007;-78
2022/05/19 12:43:36;;;;;;;;;;;;;;;18.28;100.00;-25581.81;5056076;28;19977;-78
2022/05/19 12:46:03;;;;;;;;;;;;;;;18.40;100.00;-25585.13;5057564;28;19939;-77
2022/05/19 12:48:34;;;;;;;;;;;;;;;18.62;100.00;-25591.34;5074956;28;19923;-77
2022/05/19 12:51:02;;;;;;;;;;;;;;;18.88;100.00;-25598.44;5073766;28;19924;-77
2022/05/19 12:53:42;;;;;;;;;;;;;;;19.30;100.00;-25610.44;5074872;28;20292;-77
2022/05/19 12:56:08;;;;;;;;;;;;;;;19.63;100.00;-25619.69;5074721;28;20377;-77
2022/05/19 12:58:33;;;;;;;;;;;;;;;19.93;100.00;-25628.06;5073830;28;19965;-77
2022/05/19 13:01:15;;;;;;;;;;;;;;;19.93;100.00;-25627.91;5074901;28;19973;-77
2022/05/19 13:03:44;;;;;;;;;;;;;;;20.68;100.00;-25649.09;5074266;28;20036;-78